Time;durP1;ratioP1;P1;durP2;ratioP2;P2;SDS_P1;SDS_P2;PMS_P1;PMS_P2;Temp;Humidity;BMP_temperature;BMP_pressure;BME280_temperature;BME280_humidity;BME280_pressure;Samples;Min_cycle;Max_cycle;Signal;HPM_P1;HPM_P2
2021/12/26 00:02:06;;;;;;;;;28.25;24.25;;;;;;;;5034675;28;45388;-68
2021/12/26 00:04:32;;;;;;;;;25.00;20.50;;;;;;;;5034359;28;45475;-67
2021/12/26 00:06:58;;;;;;;;;28.25;25.25;;;;;;;;5033935;28;45483;-68
2021/12/26 00:09:23;;;;;;;;;26.25;24.25;;;;;;;;5034047;28;45563;-68
2021/12/26 00:11:48;;;;;;;;;25.75;24.25;;;;;;;;5035008;28;45591;-68
2021/12/26 00:14:14;;;;;;;;;23.25;20.00;;;;;;;;5035004;28;45408;-68
2021/12/26 00:16:39;;;;;;;;;24.50;21.75;;;;;;;;5034392;28;45479;-68
2021/12/26 00:19:04;;;;;;;;;26.75;24.00;;;;;;;;5015688;28;47851;-69
2021/12/26 00:21:29;;;;;;;;;28.00;25.75;;;;;;;;5034041;28;45530;-69
2021/12/26 00:23:57;;;;;;;;;27.50;24.75;;;;;;;;5033805;28;45283;-68
2021/12/26 00:26:22;;;;;;;;;26.50;23.25;;;;;;;;5035824;28;45535;-67
2021/12/26 00:28:47;;;;;;;;;26.75;22.25;;;;;;;;5032138;28;46558;-68
2021/12/26 00:31:13;;;;;;;;;21.75;21.00;;;;;;;;5031930;28;45344;-68
2021/12/26 00:33:39;;;;;;;;;20.00;17.75;;;;;;;;5033888;28;45407;-67
2021/12/26 00:36:04;;;;;;;;;20.50;20.50;;;;;;;;5033778;28;45538;-68
2021/12/26 00:38:29;;;;;;;;;26.50;23.00;;;;;;;;5035248;28;45718;-68
2021/12/26 00:40:55;;;;;;;;;25.00;24.75;;;;;;;;5033225;28;45510;-68
2021/12/26 00:43:20;;;;;;;;;27.50;24.50;;;;;;;;5033263;28;45356;-67
2021/12/26 00:45:45;;;;;;;;;25.25;23.00;;;;;;;;5033326;28;45321;-67
2021/12/26 00:48:10;;;;;;;;;28.25;24.00;;;;;;;;5033204;28;47620;-68
2021/12/26 00:50:38;;;;;;;;;24.50;21.25;;;;;;;;5034183;28;45349;-67
2021/12/26 00:53:03;;;;;;;;;25.25;22.75;;;;;;;;5033154;28;45528;-67
2021/12/26 00:55:28;;;;;;;;;27.00;24.25;;;;;;;;5032983;28;45420;-67
2021/12/26 00:57:54;;;;;;;;;24.75;22.25;;;;;;;;5032762;28;45417;-68
2021/12/26 01:00:21;;;;;;;;;26.00;24.00;;;;;;;;5033361;28;45390;-68
2021/12/26 01:02:47;;;;;;;;;27.75;26.50;;;;;;;;5034388;28;45318;-68
2021/12/26 01:05:13;;;;;;;;;33.25;27.75;;;;;;;;5034000;28;45513;-67
2021/12/26 01:08:01;;;;;;;;;22.00;21.25;;;;;;;;5031274;28;45485;-68
2021/12/26 01:10:26;;;;;;;;;19.25;19.25;;;;;;;;5030395;28;45449;-67
2021/12/26 01:12:53;;;;;;;;;24.25;23.00;;;;;;;;5032909;28;45376;-68
2021/12/26 01:15:19;;;;;;;;;34.00;31.00;;;;;;;;5033081;28;45312;-68
2021/12/26 01:17:45;;;;;;;;;28.00;25.25;;;;;;;;5034144;28;46449;-69
2021/12/26 01:20:13;;;;;;;;;32.50;29.25;;;;;;;;5033275;28;45432;-68
2021/12/26 01:22:38;;;;;;;;;32.25;29.25;;;;;;;;5032908;28;45510;-68
2021/12/26 01:25:04;;;;;;;;;27.50;23.50;;;;;;;;5032679;28;45441;-68
2021/12/26 01:27:29;;;;;;;;;27.25;23.50;;;;;;;;5032685;28;45473;-68
2021/12/26 01:29:55;;;;;;;;;26.25;25.75;;;;;;;;5032238;28;45378;-67
2021/12/26 01:32:20;;;;;;;;;34.50;28.50;;;;;;;;5034775;28;45308;-68
2021/12/26 01:34:46;;;;;;;;;27.25;25.75;;;;;;;;5032411;28;45499;-69
2021/12/26 01:37:12;;;;;;;;;26.75;25.50;;;;;;;;5032176;28;46129;-68
2021/12/26 01:39:37;;;;;;;;;28.25;26.25;;;;;;;;5032133;28;45484;-68
2021/12/26 01:42:03;;;;;;;;;35.00;26.25;;;;;;;;5032459;28;45296;-69
2021/12/26 01:44:29;;;;;;;;;29.75;27.25;;;;;;;;5034556;28;45371;-68
2021/12/26 01:46:54;;;;;;;;;27.50;25.75;;;;;;;;5030735;28;45496;-68
2021/12/26 01:49:21;;;;;;;;;28.75;25.50;;;;;;;;5030470;28;45487;-67
2021/12/26 01:51:49;;;;;;;;;26.25;23.00;;;;;;;;5032816;28;45410;-68
2021/12/26 01:54:27;;;;;;;;;27.50;25.25;;;;;;;;5032011;28;45453;-68
2021/12/26 01:56:52;;;;;;;;;25.25;23.25;;;;;;;;5032561;28;45575;-68
2021/12/26 01:59:17;;;;;;;;;29.00;23.25;;;;;;;;5034215;28;45553;-68
2021/12/26 02:01:42;;;;;;;;;25.50;22.00;;;;;;;;5034050;28;45336;-68
2021/12/26 02:04:08;;;;;;;;;25.50;24.00;;;;;;;;5036381;28;45447;-68
2021/12/26 02:06:33;;;;;;;;;28.75;25.50;;;;;;;;5036156;28;46280;-68
2021/12/26 02:08:58;;;;;;;;;26.75;26.75;;;;;;;;5035921;28;45622;-68
2021/12/26 02:11:24;;;;;;;;;28.75;23.50;;;;;;;;5037927;28;45573;-68
2021/12/26 02:13:49;;;;;;;;;24.50;23.50;;;;;;;;5036154;28;45451;-68
2021/12/26 02:16:14;;;;;;;;;26.25;24.50;;;;;;;;5035878;28;45397;-68
2021/12/26 02:18:40;;;;;;;;;26.25;26.00;;;;;;;;5036131;28;45454;-68
2021/12/26 02:28:37;;;;;;;;;28.50;24.25;;;;;;;;5034087;28;45423;-68
2021/12/26 02:31:02;;;;;;;;;27.75;25.00;;;;;;;;5035434;28;45346;-69
2021/12/26 02:33:27;;;;;;;;;26.00;22.00;;;;;;;;5035330;28;45452;-68
2021/12/26 02:35:53;;;;;;;;;24.00;23.00;;;;;;;;5036371;28;46357;-68
2021/12/26 02:38:19;;;;;;;;;29.00;27.50;;;;;;;;5034836;28;45688;-68
2021/12/26 02:40:47;;;;;;;;;30.75;27.75;;;;;;;;5034936;28;45282;-68
2021/12/26 02:43:14;;;;;;;;;27.25;23.75;;;;;;;;5035204;28;45693;-68
2021/12/26 02:45:40;;;;;;;;;27.75;24.00;;;;;;;;5034944;28;47178;-68
2021/12/26 02:48:07;;;;;;;;;29.00;29.00;;;;;;;;5035022;28;45417;-68
2021/12/26 02:50:32;;;;;;;;;26.75;25.50;;;;;;;;5037048;28;45403;-68
2021/12/26 02:52:58;;;;;;;;;30.75;28.25;;;;;;;;5034345;28;45690;-68
2021/12/26 02:55:24;;;;;;;;;26.25;23.00;;;;;;;;5034631;28;46307;-68
2021/12/26 02:57:50;;;;;;;;;21.50;19.75;;;;;;;;5034984;28;45368;-69
2021/12/26 03:00:17;;;;;;;;;27.50;24.25;;;;;;;;5035373;28;45577;-68
2021/12/26 03:02:43;;;;;;;;;26.00;24.25;;;;;;;;5036505;28;45362;-68
2021/12/26 03:05:08;;;;;;;;;24.00;24.00;;;;;;;;5034142;28;46592;-69
2021/12/26 03:07:34;;;;;;;;;33.25;26.25;;;;;;;;5032467;28;45316;-68
2021/12/26 03:10:00;;;;;;;;;28.00;24.00;;;;;;;;5035026;28;45519;-68
2021/12/26 03:12:30;;;;;;;;;25.00;23.00;;;;;;;;5034983;28;45320;-67
2021/12/26 03:14:55;;;;;;;;;25.50;22.00;;;;;;;;5033817;28;45416;-67
2021/12/26 03:17:20;;;;;;;;;22.75;21.00;;;;;;;;5036866;28;45496;-68
2021/12/26 03:19:46;;;;;;;;;23.50;20.50;;;;;;;;5034908;28;45318;-67
2021/12/26 03:22:11;;;;;;;;;23.00;22.00;;;;;;;;5034367;28;45365;-68
2021/12/26 03:24:38;;;;;;;;;32.50;25.25;;;;;;;;5034446;28;46349;-68
2021/12/26 03:27:04;;;;;;;;;25.25;22.00;;;;;;;;5034409;28;45411;-68
2021/12/26 03:29:29;;;;;;;;;23.75;20.25;;;;;;;;5036327;28;45415;-68
2021/12/26 03:31:55;;;;;;;;;26.50;23.75;;;;;;;;5034437;28;45447;-67
2021/12/26 03:34:20;;;;;;;;;22.75;19.50;;;;;;;;5015982;28;47041;-66
2021/12/26 03:36:46;;;;;;;;;24.75;23.50;;;;;;;;5033981;28;45520;-66
2021/12/26 03:39:11;;;;;;;;;25.75;24.25;;;;;;;;5034471;28;45388;-67
2021/12/26 03:41:36;;;;;;;;;12.25;11.25;;;;;;;;5036621;28;45408;-67
2021/12/26 03:44:02;;;;;;;;;24.25;22.00;;;;;;;;5032524;28;46005;-67
2021/12/26 03:46:27;;;;;;;;;25.50;22.25;;;;;;;;5032500;28;45476;-67
2021/12/26 03:48:52;;;;;;;;;24.00;22.75;;;;;;;;5033969;28;45438;-67
2021/12/26 03:51:19;;;;;;;;;24.50;24.50;;;;;;;;5034075;28;45476;-67
2021/12/26 03:53:45;;;;;;;;;28.25;24.75;;;;;;;;5035302;28;46924;-67
2021/12/26 03:56:10;;;;;;;;;23.75;20.75;;;;;;;;5034907;28;45435;-67
2021/12/26 03:58:35;;;;;;;;;25.00;21.00;;;;;;;;5033990;28;45238;-67
2021/12/26 04:01:01;;;;;;;;;23.25;20.50;;;;;;;;5034564;28;47295;-67
2021/12/26 04:03:26;;;;;;;;;20.00;18.00;;;;;;;;5034361;28;46806;-67
2021/12/26 04:05:51;;;;;;;;;19.00;19.00;;;;;;;;5034223;28;45486;-67
2021/12/26 04:08:17;;;;;;;;;24.50;21.50;;;;;;;;5035832;28;45265;-67
2021/12/26 04:10:42;;;;;;;;;23.75;20.75;;;;;;;;5034141;28;45309;-68
2021/12/26 04:13:07;;;;;;;;;25.75;24.00;;;;;;;;5033506;28;46484;-68
2021/12/26 04:15:32;;;;;;;;;26.00;23.50;;;;;;;;5033902;28;45474;-66
2021/12/26 04:17:58;;;;;;;;;23.50;22.50;;;;;;;;5033998;28;45368;-66
2021/12/26 04:20:25;;;;;;;;;20.75;16.00;;;;;;;;5035607;28;45442;-67
2021/12/26 04:22:50;;;;;;;;;23.25;19.50;;;;;;;;5032557;28;46541;-67
2021/12/26 04:25:16;;;;;;;;;23.00;21.50;;;;;;;;5032174;28;45304;-67
2021/12/26 04:27:41;;;;;;;;;25.00;22.50;;;;;;;;5034191;28;45345;-67
2021/12/26 04:30:08;;;;;;;;;28.75;23.75;;;;;;;;5034411;28;45405;-67
2021/12/26 04:32:33;;;;;;;;;26.25;26.25;;;;;;;;5035696;28;46499;-68
2021/12/26 04:34:58;;;;;;;;;30.25;24.00;;;;;;;;5033762;28;45279;-67
2021/12/26 04:37:24;;;;;;;;;25.50;20.50;;;;;;;;5034082;28;46288;-67
2021/12/26 04:39:49;;;;;;;;;28.25;24.25;;;;;;;;5034011;28;45578;-68
2021/12/26 04:42:15;;;;;;;;;26.75;24.25;;;;;;;;5034040;28;45490;-68
2021/12/26 04:44:40;;;;;;;;;25.50;22.50;;;;;;;;5035010;28;45414;-67
2021/12/26 04:47:06;;;;;;;;;25.50;23.00;;;;;;;;5032440;28;45305;-68
2021/12/26 04:49:31;;;;;;;;;29.00;27.75;;;;;;;;5015657;28;46090;-68
2021/12/26 04:51:56;;;;;;;;;24.50;21.75;;;;;;;;5015685;28;47005;-68
2021/12/26 04:54:21;;;;;;;;;27.25;21.25;;;;;;;;5033410;28;45480;-67
2021/12/26 04:56:47;;;;;;;;;26.25;23.00;;;;;;;;5034799;28;45533;-67
2021/12/26 04:59:12;;;;;;;;;17.75;17.00;;;;;;;;5034860;28;45463;-68
2021/12/26 05:01:39;;;;;;;;;27.75;27.25;;;;;;;;5032202;28;45478;-67
2021/12/26 05:04:04;;;;;;;;;28.25;25.25;;;;;;;;5031678;28;45440;-67
2021/12/26 05:06:30;;;;;;;;;23.50;23.25;;;;;;;;5033188;28;45515;-67
2021/12/26 05:08:55;;;;;;;;;33.25;26.25;;;;;;;;5033631;28;45408;-68
2021/12/26 05:11:20;;;;;;;;;25.00;21.75;;;;;;;;5035178;28;46766;-67
2021/12/26 05:13:46;;;;;;;;;22.25;21.50;;;;;;;;5033349;28;45453;-66
2021/12/26 05:16:11;;;;;;;;;26.00;23.25;;;;;;;;5033535;28;45345;-67
2021/12/26 05:18:36;;;;;;;;;30.00;24.25;;;;;;;;5033072;28;45474;-67
2021/12/26 05:21:02;;;;;;;;;26.25;23.50;;;;;;;;5033308;28;45514;-67
2021/12/26 05:23:27;;;;;;;;;30.00;24.25;;;;;;;;5035067;28;45495;-66
2021/12/26 05:25:52;;;;;;;;;24.75;21.25;;;;;;;;5033335;28;45463;-68
2021/12/26 05:28:17;;;;;;;;;24.25;22.00;;;;;;;;5032773;28;45391;-66
2021/12/26 05:30:43;;;;;;;;;31.25;25.25;;;;;;;;5032761;28;45571;-67
2021/12/26 05:33:08;;;;;;;;;27.75;23.00;;;;;;;;5032634;28;45568;-67
2021/12/26 05:35:33;;;;;;;;;26.00;20.75;;;;;;;;5035278;28;45254;-67
2021/12/26 05:37:59;;;;;;;;;28.75;24.75;;;;;;;;5032602;28;45314;-67
2021/12/26 05:40:24;;;;;;;;;23.75;19.75;;;;;;;;5031200;28;46358;-67
2021/12/26 05:42:50;;;;;;;;;25.25;22.25;;;;;;;;5031424;28;45360;-68
2021/12/26 05:45:15;;;;;;;;;22.00;20.50;;;;;;;;5033126;28;45643;-69
2021/12/26 05:47:41;;;;;;;;;21.25;20.75;;;;;;;;5034156;28;45568;-68
2021/12/26 05:50:07;;;;;;;;;22.75;20.75;;;;;;;;5031681;28;46308;-67
2021/12/26 05:52:33;;;;;;;;;27.25;23.75;;;;;;;;5032895;28;45542;-68
2021/12/26 05:54:58;;;;;;;;;24.00;21.50;;;;;;;;5032274;28;45454;-67
2021/12/26 05:57:23;;;;;;;;;22.50;19.75;;;;;;;;5032552;28;45469;-68
2021/12/26 05:59:49;;;;;;;;;22.50;20.75;;;;;;;;5015545;28;46939;-68
2021/12/26 06:02:14;;;;;;;;;21.00;20.75;;;;;;;;5033536;28;45403;-67
2021/12/26 06:04:40;;;;;;;;;22.25;22.00;;;;;;;;5032193;28;45376;-69
2021/12/26 06:07:05;;;;;;;;;23.25;18.75;;;;;;;;5014482;28;45662;-68
2021/12/26 06:09:30;;;;;;;;;22.75;22.25;;;;;;;;5014106;28;47075;-68
2021/12/26 06:11:56;;;;;;;;;22.50;19.50;;;;;;;;5032320;28;45478;-68
2021/12/26 06:14:21;;;;;;;;;26.00;23.75;;;;;;;;5016157;28;45513;-68
2021/12/26 06:16:46;;;;;;;;;21.25;19.00;;;;;;;;5031811;28;45437;-68
2021/12/26 06:19:11;;;;;;;;;21.50;18.50;;;;;;;;5030956;28;45358;-68
2021/12/26 06:21:37;;;;;;;;;18.50;17.00;;;;;;;;5030804;28;45388;-68
2021/12/26 06:24:02;;;;;;;;;18.50;15.50;;;;;;;;5032718;28;45421;-68
2021/12/26 06:26:28;;;;;;;;;20.00;17.50;;;;;;;;5033940;28;45575;-68
2021/12/26 06:28:53;;;;;;;;;25.00;17.50;;;;;;;;5031769;28;47034;-68
2021/12/26 06:31:19;;;;;;;;;20.75;16.75;;;;;;;;5031376;28;45460;-68
2021/12/26 06:33:46;;;;;;;;;22.00;17.00;;;;;;;;5032068;28;45361;-68
2021/12/26 06:36:12;;;;;;;;;18.75;18.75;;;;;;;;5032106;28;45398;-67
2021/12/26 06:38:37;;;;;;;;;18.25;15.50;;;;;;;;5033680;28;45484;-67
2021/12/26 06:41:04;;;;;;;;;15.25;15.25;;;;;;;;5031898;28;45438;-67
2021/12/26 06:43:29;;;;;;;;;16.25;15.25;;;;;;;;5032422;28;45480;-68
2021/12/26 06:45:55;;;;;;;;;18.00;15.00;;;;;;;;5031607;28;45397;-68
2021/12/26 06:48:20;;;;;;;;;16.00;14.50;;;;;;;;5032472;28;46403;-68
2021/12/26 06:50:46;;;;;;;;;19.25;19.25;;;;;;;;5036437;28;45474;-68
2021/12/26 06:53:12;;;;;;;;;17.50;16.25;;;;;;;;5035831;28;45348;-68
2021/12/26 06:55:37;;;;;;;;;15.25;13.00;;;;;;;;5035009;28;45347;-68
2021/12/26 06:58:03;;;;;;;;;19.50;15.25;;;;;;;;5033768;28;46712;-68
2021/12/26 07:00:28;;;;;;;;;15.00;15.00;;;;;;;;5033288;28;45380;-68
2021/12/26 07:02:53;;;;;;;;;17.25;16.75;;;;;;;;5034914;28;45446;-68
2021/12/26 07:05:18;;;;;;;;;19.00;15.50;;;;;;;;5034800;28;45347;-68
2021/12/26 07:07:44;;;;;;;;;17.25;15.00;;;;;;;;5034713;28;45412;-68
2021/12/26 07:10:10;;;;;;;;;19.50;14.75;;;;;;;;5034385;28;45477;-68
2021/12/26 07:12:35;;;;;;;;;14.75;13.00;;;;;;;;5034738;28;45237;-68
2021/12/26 07:15:00;;;;;;;;;17.50;15.50;;;;;;;;5034027;28;45226;-67
2021/12/26 07:17:26;;;;;;;;;17.25;15.25;;;;;;;;5035719;28;46018;-67
2021/12/26 07:19:51;;;;;;;;;17.75;17.75;;;;;;;;5033746;28;45513;-68
2021/12/26 07:22:16;;;;;;;;;17.75;12.00;;;;;;;;5033553;28;45608;-67
2021/12/26 07:24:43;;;;;;;;;16.00;15.50;;;;;;;;5033887;28;45502;-68
2021/12/26 07:27:12;;;;;;;;;13.75;13.75;;;;;;;;5033721;28;45824;-67
2021/12/26 07:29:37;;;;;;;;;17.50;16.00;;;;;;;;5031324;28;45300;-68
2021/12/26 07:32:02;;;;;;;;;17.25;16.75;;;;;;;;5033969;28;45559;-69
2021/12/26 07:34:27;;;;;;;;;14.75;14.00;;;;;;;;5033938;28;45217;-67
2021/12/26 07:36:53;;;;;;;;;13.50;12.50;;;;;;;;5032372;28;46252;-67
2021/12/26 07:39:18;;;;;;;;;13.50;13.50;;;;;;;;5032226;28;45368;-68
2021/12/26 07:41:43;;;;;;;;;18.25;15.50;;;;;;;;5035829;28;45388;-68
2021/12/26 07:44:08;;;;;;;;;17.00;14.50;;;;;;;;5034498;28;45439;-67
2021/12/26 07:46:33;;;;;;;;;17.75;14.25;;;;;;;;5033733;28;45400;-68
2021/12/26 07:48:59;;;;;;;;;15.25;14.50;;;;;;;;5033999;28;45463;-68
2021/12/26 07:51:25;;;;;;;;;15.75;13.00;;;;;;;;5033752;28;45397;-68
2021/12/26 07:53:51;;;;;;;;;16.75;16.75;;;;;;;;5034308;28;45357;-68
2021/12/26 07:56:17;;;;;;;;;16.50;16.00;;;;;;;;5035099;28;46673;-68
2021/12/26 07:58:42;;;;;;;;;15.00;14.00;;;;;;;;5032257;28;45335;-67
2021/12/26 08:01:08;;;;;;;;;17.00;16.50;;;;;;;;5033210;28;45435;-68
2021/12/26 08:03:34;;;;;;;;;19.25;16.75;;;;;;;;5033820;28;45494;-68
2021/12/26 08:05:59;;;;;;;;;17.25;15.00;;;;;;;;5033643;28;46118;-68
2021/12/26 08:08:25;;;;;;;;;16.00;16.00;;;;;;;;5035375;28;45375;-68
2021/12/26 08:10:50;;;;;;;;;14.25;11.50;;;;;;;;5032912;28;45515;-67
2021/12/26 08:13:16;;;;;;;;;15.50;13.75;;;;;;;;5015358;28;45578;-68
2021/12/26 08:15:41;;;;;;;;;17.00;14.50;;;;;;;;5032584;28;46060;-68
2021/12/26 08:18:07;;;;;;;;;19.00;16.25;;;;;;;;5017005;28;45384;-68
2021/12/26 08:20:32;;;;;;;;;20.00;18.00;;;;;;;;5035084;28;45383;-68
2021/12/26 08:22:57;;;;;;;;;20.50;17.75;;;;;;;;5033418;28;45421;-68
2021/12/26 08:25:23;;;;;;;;;21.25;17.00;;;;;;;;5032780;28;45443;-68
2021/12/26 08:27:48;;;;;;;;;18.00;16.00;;;;;;;;5033360;28;45368;-68
2021/12/26 08:30:13;;;;;;;;;18.00;17.00;;;;;;;;5033527;28;45368;-68
2021/12/26 08:32:41;;;;;;;;;15.75;14.00;;;;;;;;5035131;28;45433;-68
2021/12/26 08:35:07;;;;;;;;;13.75;12.50;;;;;;;;5033749;28;47365;-68
2021/12/26 08:37:33;;;;;;;;;16.25;16.25;;;;;;;;5032962;28;45302;-68
2021/12/26 08:39:58;;;;;;;;;17.50;17.50;;;;;;;;5032223;28;45647;-67
2021/12/26 08:42:23;;;;;;;;;19.00;15.25;;;;;;;;5032464;28;45603;-68
2021/12/26 08:44:50;;;;;;;;;21.75;14.50;;;;;;;;5015735;28;48324;-68
2021/12/26 08:47:16;;;;;;;;;13.25;12.75;;;;;;;;5033956;28;45329;-67
2021/12/26 08:49:41;;;;;;;;;13.25;13.25;;;;;;;;5032927;28;45745;-68
2021/12/26 08:52:07;;;;;;;;;17.75;15.75;;;;;;;;5032833;28;45370;-68
2021/12/26 08:54:34;;;;;;;;;16.75;15.00;;;;;;;;5030561;28;46075;-68
2021/12/26 08:57:00;;;;;;;;;22.00;17.25;;;;;;;;5032232;28;45365;-68
2021/12/26 08:59:30;;;;;;;;;19.00;16.75;;;;;;;;5033126;28;45416;-67
2021/12/26 09:01:55;;;;;;;;;23.00;19.50;;;;;;;;5032226;28;45367;-68
2021/12/26 09:04:21;;;;;;;;;19.25;19.00;;;;;;;;5032423;28;45623;-68
2021/12/26 09:06:46;;;;;;;;;21.75;17.75;;;;;;;;5031788;28;45439;-68
2021/12/26 09:09:11;;;;;;;;;16.75;16.75;;;;;;;;5031810;28;45566;-68
2021/12/26 09:11:36;;;;;;;;;17.75;16.75;;;;;;;;5015552;28;45364;-68
2021/12/26 09:14:02;;;;;;;;;21.25;17.75;;;;;;;;5031676;28;45359;-67
2021/12/26 09:16:33;;;;;;;;;20.50;18.75;;;;;;;;5032252;28;45436;-68
2021/12/26 09:18:59;;;;;;;;;20.25;18.00;;;;;;;;5032477;28;45345;-68
2021/12/26 09:21:24;;;;;;;;;25.00;21.75;;;;;;;;5032458;28;45353;-67
2021/12/26 09:23:49;;;;;;;;;20.25;18.25;;;;;;;;5032208;28;46058;-68
2021/12/26 09:26:14;;;;;;;;;25.50;20.00;;;;;;;;5033318;28;45396;-67
2021/12/26 09:28:39;;;;;;;;;20.50;18.25;;;;;;;;5031881;28;45392;-68
2021/12/26 09:31:05;;;;;;;;;19.50;19.25;;;;;;;;5031489;28;45425;-68
2021/12/26 09:33:30;;;;;;;;;17.75;14.50;;;;;;;;5030535;28;45564;-68
2021/12/26 09:35:55;;;;;;;;;18.25;17.25;;;;;;;;5032623;28;45313;-69
2021/12/26 09:38:21;;;;;;;;;17.50;16.00;;;;;;;;5031696;28;45371;-68
2021/12/26 09:40:46;;;;;;;;;12.00;11.00;;;;;;;;5031559;28;47627;-68
2021/12/26 09:43:11;;;;;;;;;19.00;16.25;;;;;;;;5031470;28;45409;-67
2021/12/26 09:45:36;;;;;;;;;15.00;15.00;;;;;;;;5031643;28;45344;-68
2021/12/26 09:48:02;;;;;;;;;17.50;14.50;;;;;;;;5031506;28;45356;-68
2021/12/26 09:50:27;;;;;;;;;14.75;12.75;;;;;;;;5034117;28;45373;-67
2021/12/26 09:52:53;;;;;;;;;17.75;13.25;;;;;;;;5031329;28;45396;-67
2021/12/26 09:55:19;;;;;;;;;19.25;16.50;;;;;;;;5031218;28;45302;-68
2021/12/26 09:57:44;;;;;;;;;21.00;16.50;;;;;;;;5031350;28;46021;-68
2021/12/26 10:00:26;;;;;;;;;18.25;16.50;;;;;;;;5031294;28;45374;-69
2021/12/26 10:03:10;;;;;;;;;14.50;12.75;;;;;;;;5029989;28;47143;-68
2021/12/26 10:05:54;;;;;;;;;13.25;12.50;;;;;;;;5029721;28;45421;-68
2021/12/26 10:08:19;;;;;;;;;13.25;12.50;;;;;;;;5030746;28;45431;-68
2021/12/26 10:11:02;;;;;;;;;9.25;9.25;;;;;;;;5031426;28;45445;-69
2021/12/26 10:13:40;;;;;;;;;15.00;13.00;;;;;;;;5029358;28;45664;-68
2021/12/26 10:16:06;;;;;;;;;10.00;10.00;;;;;;;;5030065;28;45379;-67
2021/12/26 10:18:31;;;;;;;;;11.25;11.25;;;;;;;;5031002;28;45492;-68
2021/12/26 10:20:56;;;;;;;;;12.50;11.25;;;;;;;;5032084;28;45481;-65
2021/12/26 10:23:29;;;;;;;;;9.00;9.00;;;;;;;;5035019;28;46174;-67
2021/12/26 10:25:54;;;;;;;;;13.25;12.25;;;;;;;;5034448;28;45404;-68
2021/12/26 10:28:19;;;;;;;;;10.25;9.75;;;;;;;;5034448;28;45451;-68
2021/12/26 10:30:45;;;;;;;;;11.00;10.50;;;;;;;;5034081;28;45400;-68
2021/12/26 10:33:10;;;;;;;;;11.00;10.00;;;;;;;;5034051;28;46544;-67
2021/12/26 10:35:35;;;;;;;;;14.50;12.25;;;;;;;;5032503;28;45464;-67
2021/12/26 10:38:00;;;;;;;;;11.75;10.50;;;;;;;;5026798;28;45531;-67
2021/12/26 10:40:27;;;;;;;;;10.00;9.00;;;;;;;;5029649;28;45465;-68
2021/12/26 10:42:55;;;;;;;;;13.75;10.00;;;;;;;;5027808;28;46285;-68
2021/12/26 10:45:23;;;;;;;;;3.00;3.00;;;;;;;;5033906;28;45552;-68
2021/12/26 10:47:52;;;;;;;;;8.50;6.50;;;;;;;;5035047;28;45542;-69
2021/12/26 10:50:19;;;;;;;;;8.75;7.75;;;;;;;;5035426;28;45559;-68
2021/12/26 10:53:17;;;;;;;;;7.00;7.00;;;;;;;;5031986;28;46607;-68
2021/12/26 10:55:51;;;;;;;;;10.75;9.00;;;;;;;;4933746;28;45375;-68
2021/12/26 10:58:18;;;;;;;;;9.75;9.75;;;;;;;;4929985;28;45485;-69
2021/12/26 11:00:47;;;;;;;;;12.25;11.00;;;;;;;;4929924;28;45554;-68
2021/12/26 11:03:17;;;;;;;;;14.25;13.25;;;;;;;;4933897;28;46496;-70
2021/12/26 11:05:44;;;;;;;;;10.50;9.50;;;;;;;;4915584;28;45397;-69
2021/12/26 11:08:16;;;;;;;;;12.75;10.00;;;;;;;;4931202;28;47245;-70
2021/12/26 11:10:42;;;;;;;;;13.50;10.50;;;;;;;;4930972;28;45308;-69
2021/12/26 11:13:15;;;;;;;;;9.25;9.00;;;;;;;;4930030;28;46595;-69
2021/12/26 11:15:41;;;;;;;;;11.50;9.00;;;;;;;;4914726;28;45436;-69
2021/12/26 11:18:10;;;;;;;;;15.50;13.75;;;;;;;;4934073;28;45552;-70
2021/12/26 11:20:38;;;;;;;;;9.25;8.25;;;;;;;;4930383;28;45623;-69
2021/12/26 11:23:09;;;;;;;;;9.75;9.75;;;;;;;;4928988;28;45608;-70
2021/12/26 11:25:36;;;;;;;;;11.50;10.25;;;;;;;;4929200;28;45566;-68
2021/12/26 11:28:01;;;;;;;;;12.25;12.00;;;;;;;;4929446;28;45370;-68
2021/12/26 11:30:26;;;;;;;;;12.00;10.75;;;;;;;;4948173;28;45595;-68
2021/12/26 11:32:51;;;;;;;;;11.25;10.25;;;;;;;;5033829;28;45433;-69
2021/12/26 11:35:17;;;;;;;;;5.50;4.25;;;;;;;;5031165;28;45494;-68
2021/12/26 11:37:43;;;;;;;;;10.00;8.50;;;;;;;;5033675;28;45482;-68
2021/12/26 11:40:09;;;;;;;;;9.25;7.50;;;;;;;;5016733;28;45361;-69
2021/12/26 11:42:34;;;;;;;;;8.75;8.00;;;;;;;;5033548;28;46500;-68
2021/12/26 11:45:11;;;;;;;;;8.75;7.75;;;;;;;;5035065;28;46203;-68
2021/12/26 11:48:00;;;;;;;;;7.00;7.00;;;;;;;;5040931;28;45430;-67
2021/12/26 11:50:41;;;;;;;;;8.00;8.00;;;;;;;;5033896;28;45538;-68
2021/12/26 11:53:25;;;;;;;;;8.00;7.00;;;;;;;;5036414;28;45535;-67
2021/12/26 11:56:00;;;;;;;;;8.50;7.00;;;;;;;;5028344;28;45546;-71
2021/12/26 11:58:38;;;;;;;;;7.25;5.00;;;;;;;;5037005;28;46362;-70
2021/12/26 12:01:03;;;;;;;;;6.00;4.00;;;;;;;;5039278;28;45611;-69
2021/12/26 12:03:29;;;;;;;;;5.50;5.50;;;;;;;;5032936;28;46289;-69
2021/12/26 12:05:55;;;;;;;;;6.50;6.00;;;;;;;;5041051;28;45426;-72
2021/12/26 12:08:30;;;;;;;;;3.75;3.75;;;;;;;;5039646;28;45577;-69
2021/12/26 12:10:57;;;;;;;;;6.00;4.50;;;;;;;;5026525;28;45561;-73
2021/12/26 12:13:22;;;;;;;;;3.25;3.25;;;;;;;;5027420;28;46516;-68
2021/12/26 12:15:55;;;;;;;;;6.50;4.50;;;;;;;;5035420;28;45699;-67
2021/12/26 12:18:24;;;;;;;;;5.50;5.50;;;;;;;;5039992;28;45478;-66
2021/12/26 12:21:08;;;;;;;;;4.50;3.00;;;;;;;;5042231;28;45503;-66
2021/12/26 12:23:33;;;;;;;;;2.25;2.00;;;;;;;;5039892;28;46183;-67
2021/12/26 12:25:59;;;;;;;;;6.00;4.25;;;;;;;;5037429;28;46250;-67
2021/12/26 12:28:28;;;;;;;;;5.25;4.25;;;;;;;;5036664;28;45531;-68
2021/12/26 12:30:57;;;;;;;;;3.75;3.75;;;;;;;;5036994;28;45674;-68
2021/12/26 12:33:30;;;;;;;;;4.00;4.00;;;;;;;;5037788;28;46201;-68
2021/12/26 12:36:08;;;;;;;;;5.50;4.00;;;;;;;;5024066;28;45585;-69
2021/12/26 12:38:53;;;;;;;;;6.00;4.00;;;;;;;;5039307;28;45463;-68
2021/12/26 12:41:28;;;;;;;;;3.75;3.75;;;;;;;;5035510;28;45475;-68
2021/12/26 12:43:53;;;;;;;;;4.00;4.00;;;;;;;;5033435;28;46582;-69
2021/12/26 12:46:18;;;;;;;;;3.00;3.00;;;;;;;;5036592;28;45552;-68
2021/12/26 12:48:46;;;;;;;;;1.50;1.50;;;;;;;;5040417;28;45433;-68
2021/12/26 12:51:14;;;;;;;;;1.50;1.50;;;;;;;;5036375;28;45467;-67
2021/12/26 12:53:40;;;;;;;;;1.75;1.75;;;;;;;;5039020;28;45479;-70
2021/12/26 12:56:06;;;;;;;;;3.00;3.00;;;;;;;;5039851;28;45506;-67
2021/12/26 12:58:32;;;;;;;;;4.00;2.75;;;;;;;;5025174;28;45548;-67
2021/12/26 13:01:02;;;;;;;;;2.75;2.25;;;;;;;;5036882;28;45576;-67
2021/12/26 13:03:28;;;;;;;;;3.75;3.00;;;;;;;;5037788;28;46754;-68
2021/12/26 13:05:54;;;;;;;;;4.00;4.00;;;;;;;;5040584;28;45706;-67
2021/12/26 13:08:20;;;;;;;;;5.00;4.50;;;;;;;;5041588;28;45828;-67
2021/12/26 13:10:54;;;;;;;;;3.25;3.25;;;;;;;;5040911;28;45530;-67
2021/12/26 13:13:21;;;;;;;;;4.50;4.50;;;;;;;;5026707;28;46987;-68
2021/12/26 13:15:53;;;;;;;;;4.00;1.50;;;;;;;;5038301;28;45482;-69
2021/12/26 13:18:19;;;;;;;;;1.00;1.00;;;;;;;;5037606;28;45534;-67
2021/12/26 13:20:48;;;;;;;;;1.00;1.00;;;;;;;;5037016;28;45570;-67
2021/12/26 13:23:13;;;;;;;;;1.50;1.50;;;;;;;;5034093;28;45663;-70
2021/12/26 13:25:39;;;;;;;;;1.50;1.50;;;;;;;;5036032;28;45630;-68
2021/12/26 13:28:10;;;;;;;;;1.00;1.00;;;;;;;;5036760;28;45468;-68
2021/12/26 13:30:39;;;;;;;;;2.00;0.75;;;;;;;;5031342;28;45563;-68
2021/12/26 13:33:12;;;;;;;;;2.75;1.00;;;;;;;;5032857;28;46391;-68
2021/12/26 13:35:38;;;;;;;;;0.25;0.25;;;;;;;;5040365;28;45349;-67
2021/12/26 13:38:06;;;;;;;;;3.50;1.00;;;;;;;;5038607;28;45478;-67
2021/12/26 13:40:39;;;;;;;;;1.00;1.00;;;;;;;;5034670;28;45508;-68
2021/12/26 13:43:05;;;;;;;;;3.25;2.00;;;;;;;;5035267;28;45639;-67
2021/12/26 13:45:31;;;;;;;;;0.50;0.50;;;;;;;;5031827;28;45393;-68
2021/12/26 13:47:56;;;;;;;;;2.00;2.00;;;;;;;;5033981;28;45486;-67
2021/12/26 13:50:21;;;;;;;;;2.75;2.75;;;;;;;;5038382;28;45545;-68
2021/12/26 13:52:57;;;;;;;;;2.50;1.50;;;;;;;;5037908;28;45489;-70
2021/12/26 13:55:23;;;;;;;;;2.50;2.50;;;;;;;;5037421;28;45630;-71
2021/12/26 13:57:55;;;;;;;;;3.00;2.00;;;;;;;;5040078;28;46893;-67
2021/12/26 14:00:21;;;;;;;;;4.25;3.25;;;;;;;;5037664;28;45587;-68
2021/12/26 14:02:46;;;;;;;;;2.25;2.25;;;;;;;;5043156;28;46462;-66
2021/12/26 14:05:12;;;;;;;;;1.75;1.75;;;;;;;;5037510;28;45454;-67
2021/12/26 14:07:43;;;;;;;;;2.00;2.00;;;;;;;;5036152;28;45609;-66
2021/12/26 14:10:15;;;;;;;;;3.75;2.00;;;;;;;;5030157;28;45455;-67
2021/12/26 14:12:42;;;;;;;;;2.75;2.00;;;;;;;;5033311;28;45416;-67
2021/12/26 14:15:24;;;;;;;;;3.00;2.25;;;;;;;;5042714;28;45424;-67
2021/12/26 14:18:00;;;;;;;;;0.75;0.75;;;;;;;;5031762;28;45404;-67
2021/12/26 14:20:42;;;;;;;;;3.50;1.00;;;;;;;;5040457;28;45430;-67
2021/12/26 14:23:16;;;;;;;;;2.25;2.25;;;;;;;;5039766;28;46328;-68
2021/12/26 14:25:41;;;;;;;;;2.50;1.00;;;;;;;;5035543;28;45335;-68
2021/12/26 14:28:06;;;;;;;;;1.00;1.00;;;;;;;;5036920;28;45581;-67
2021/12/26 14:30:38;;;;;;;;;1.75;1.75;;;;;;;;5034982;28;45488;-67